This is the latest recevied weather packets stored in our database for station/object OK1PHM-12. If no packets are shown the sender has not sent any weather packets the latest 10 day(s).
| Time | Temp. | Humidity | Pressure | Rain* | Wind** | Luminosity | Snow |
|---|---|---|---|---|---|---|---|
| 1778086694 | 17.22° C | 84% | 1006.4 hPa | - | - | - | - |
| 1778085793 | 17.78° C | 83% | 1006.3 hPa | - | - | - | - |
| 1778084892 | 17.78° C | 83% | 1006.3 hPa | - | - | - | - |
| 1778083991 | 17.22° C | 84% | 1006.2 hPa | - | - | - | - |
| 1778083090 | 17.78° C | 85% | 1006.6 hPa | - | - | - | - |
| 1778082190 | 18.89° C | 77% | 1006.9 hPa | - | - | - | - |
| 1778081289 | 19.44° C | 73% | 1006.9 hPa | - | - | - | - |
| 1778080388 | 20.56° C | 67% | 1007.1 hPa | - | - | - | - |
| 1778079487 | 20.56° C | 71% | 1007.2 hPa | - | - | - | - |
| 1778078586 | 20.56° C | 73% | 1007.2 hPa | - | - | - | - |
| 1778077686 | 20.56° C | 77% | 1007.3 hPa | - | - | - | - |
| 1778076785 | 21.11° C | 65% | 1007.3 hPa | - | - | - | - |
| 1778075884 | 21.67° C | 62% | 1007.2 hPa | - | - | - | - |
| 1778074983 | 21.67° C | 64% | 1007.3 hPa | - | - | - | - |
| 1778074082 | 20.56° C | 63% | 1007.5 hPa | - | - | - | - |
| 1778073181 | 23.89° C | 45% | 1007.7 hPa | - | - | - | - |
| 1778072281 | 24.44° C | 45% | 1007.5 hPa | - | - | - | - |
| 1778071380 | 25° C | 42% | 1007.6 hPa | - | - | - | - |
| 1778070479 | 24.44° C | 42% | 1007.9 hPa | - | - | - | - |
| 1778069578 | 26.11° C | 39% | 1008 hPa | - | - | - | - |
| 1778068677 | 25° C | 42% | 1008 hPa | - | - | - | - |
| 1778067776 | 26.11° C | 40% | 1008.1 hPa | - | - | - | - |
| 1778066876 | 26.67° C | 42% | 1008.4 hPa | - | - | - | - |
| 1778065975 | 23.89° C | 45% | 1008.5 hPa | - | - | - | - |
| 1778065074 | 23.89° C | 45% | 1008.7 hPa | - | - | - | - |
* Rain since midnight (hover to see other rain measurements)
** Current wind speed in m/s (hover to see current wind gust speed)